Airport Name : Schiphol

Other Name : Amsterdam

ICAO : EHAM

IATA : AMS

FAA :

Latitude : 52.308613

Longitude : 4.763889

Country : Netherlands

Local Date and Time : 24 Jan 2021 07:00

 

TAF (Terminal Aerodrome Forecast)

TAF EHAM 240520Z 2406/2512 27006KT 9999 SCT025 BECMG 2414/2417 VRB03KT PROB30 TEMPO 2507/2512 6000 -SHRA -SHRASN SCT022CB BKN025 BECMG 2509/2512 28006KT

 

METAR (METeorological Aerodrome Report)

EHAM 240555Z 26005KT 9999 FEW020 00/M01 Q0996 NOSIG

EHAM 240525Z 30004KT 9999 FEW020 01/M00 Q0996 NOSIG

EHAM 240455Z 32004KT 280V340 9999 FEW015 01/M00 Q0996 NOSIG

EHAM 240425Z 29008KT 260V320 6000 -SHRASN SCT015CB 02/00 Q0996 BECMG 9999 NSW

EHAM 240355Z 33004KT 6000 -SHRA SCT015CB 02/00 Q0995 TEMPO 4000 SHRASN

EHAM 240325Z 30004KT 9999 FEW014 SCT016 01/00 Q0995 TEMPO 4000 SHRASN SCT015CB

EHAM 240255Z 29005KT 9999 FEW016 01/00 Q0995 NOSIG

EHAM 240225Z 31003KT 9999 FEW014 01/00 Q0994 NOSIG

To Charter a Jet Click here.